Time;durP1;ratioP1;P1;durP2;ratioP2;P2;SDS_P1;SDS_P2;PMS_P1;PMS_P2;Temp;Humidity;BMP_temperature;BMP_pressure;BME280_temperature;BME280_humidity;BME280_pressure;Samples;Min_cycle;Max_cycle;Signal;HPM_P1;HPM_P2
2021/08/23 00:01:43;;;;;;;50.35;21.20;;;;;;;16.72;100.00;101940.09;5223829;28;20013;-82
2021/08/23 00:04:14;;;;;;;43.42;22.20;;;;;;;16.76;100.00;101941.38;5223279;28;20116;-82
2021/08/23 00:06:45;;;;;;;48.20;20.20;;;;;;;16.77;100.00;101948.53;5206151;28;20497;-83
2021/08/23 00:09:15;;;;;;;42.92;19.80;;;;;;;16.77;100.00;101948.53;5209990;28;20025;-82
2021/08/23 00:11:47;;;;;;;39.15;19.83;;;;;;;16.77;100.00;101947.69;5233819;28;20083;-84
2021/08/23 00:14:17;;;;;;;49.33;22.23;;;;;;;16.70;100.00;101943.97;5222301;28;20024;-83
2021/08/23 00:16:49;;;;;;;53.65;20.90;;;;;;;16.67;100.00;101945.19;5211863;28;20052;-83
2021/08/23 00:19:20;;;;;;;49.78;23.48;;;;;;;16.67;100.00;101944.34;5221288;28;20493;-83
2021/08/23 00:22:00;;;;;;;49.65;22.05;;;;;;;16.68;100.00;101938.72;5223082;28;20174;-81
2021/08/23 00:24:30;;;;;;;40.63;21.42;;;;;;;16.67;100.00;101938.91;5222828;28;20070;-81
2021/08/23 00:27:01;;;;;;;52.65;23.15;;;;;;;16.64;100.00;101945.53;5222485;28;20107;-82
2021/08/23 00:29:31;;;;;;;41.42;22.15;;;;;;;16.70;100.00;101944.78;5222432;28;20031;-83
2021/08/23 00:32:02;;;;;;;42.20;21.33;;;;;;;16.71;100.00;101949.22;5220536;28;20029;-82
2021/08/23 00:34:33;;;;;;;43.33;22.17;;;;;;;16.71;100.00;101946.50;5215845;28;20070;-84
2021/08/23 00:37:04;;;;;;;45.55;20.80;;;;;;;16.69;100.00;101947.69;5223376;28;20269;-82
2021/08/23 00:39:37;;;;;;;45.28;19.65;;;;;;;16.68;100.00;101948.72;5218653;28;20167;-83
2021/08/23 00:42:08;;;;;;;39.38;20.25;;;;;;;16.61;100.00;101936.91;5226273;28;20036;-84
2021/08/23 00:44:41;;;;;;;42.67;18.88;;;;;;;16.60;100.00;101946.06;5194780;28;20329;-83
2021/08/23 00:47:12;;;;;;;40.92;18.58;;;;;;;16.58;100.00;101944.38;5226019;28;20025;-80
2021/08/23 00:49:42;;;;;;;39.85;18.40;;;;;;;16.54;100.00;101947.63;5224860;28;20037;-83
2021/08/23 00:52:13;;;;;;;37.88;17.73;;;;;;;16.62;100.00;101944.00;5198340;28;20033;-82
2021/08/23 00:54:44;;;;;;;39.70;18.13;;;;;;;16.62;100.00;101944.00;5221135;28;20025;-83
2021/08/23 00:57:14;;;;;;;35.85;18.13;;;;;;;16.62;100.00;101944.88;5225541;28;20291;-83
2021/08/23 00:59:45;;;;;;;39.92;16.35;;;;;;;16.67;100.00;101947.88;5220598;28;20033;-83
2021/08/23 01:02:31;;;;;;;42.97;16.80;;;;;;;16.64;100.00;101942.81;5216380;28;20039;-82
2021/08/23 01:05:08;;;;;;;36.55;16.60;;;;;;;16.58;100.00;101952.50;5223673;28;20108;-83
2021/08/23 01:07:50;;;;;;;39.20;17.10;;;;;;;16.56;100.00;101946.41;5225341;28;20514;-82
2021/08/23 01:10:32;;;;;;;32.60;16.80;;;;;;;16.54;100.00;101945.75;5231656;28;20103;-84
2021/08/23 01:13:12;;;;;;;40.08;17.00;;;;;;;16.61;100.00;101943.16;5215460;28;20047;-83
2021/08/23 01:15:43;;;;;;;43.95;17.25;;;;;;;16.62;100.00;101950.28;5226295;28;20028;-82
2021/08/23 01:18:29;;;;;;;41.53;19.45;;;;;;;16.60;100.00;101943.34;5216017;28;20108;-83
2021/08/23 01:21:03;;;;;;;29.67;17.08;;;;;;;16.66;100.00;101946.16;5212385;28;20101;-82
2021/08/23 01:23:37;;;;;;;33.70;18.13;;;;;;;16.65;100.00;101954.50;5208957;28;20087;-83
2021/08/23 01:26:09;;;;;;;32.60;17.70;;;;;;;16.67;100.00;101953.31;5226575;28;20028;-82
2021/08/23 01:29:01;;;;;;;34.65;16.75;;;;;;;16.66;100.00;101953.47;5213274;28;20021;-82
2021/08/23 01:31:44;;;;;;;38.25;17.02;;;;;;;16.73;100.00;101951.78;5227108;28;20024;-83
2021/08/23 01:34:15;;;;;;;30.08;16.35;;;;;;;16.78;100.00;101958.34;5227174;28;20017;-83
2021/08/23 01:36:46;;;;;;;32.60;14.77;;;;;;;16.78;100.00;101961.03;5214139;28;20091;-83
2021/08/23 01:39:19;;;;;;;32.88;14.80;;;;;;;16.77;100.00;101951.22;5228082;28;20486;-83
2021/08/23 01:41:50;;;;;;;30.05;13.48;;;;;;;16.81;100.00;101966.09;5226983;28;20035;-83
2021/08/23 01:44:20;;;;;;;23.55;11.65;;;;;;;16.80;100.00;101968.97;5227913;28;20033;-84
2021/08/23 01:46:51;;;;;;;27.58;11.63;;;;;;;16.87;100.00;101958.25;5226823;28;20031;-83
2021/08/23 01:49:28;;;;;;;20.08;11.93;;;;;;;16.83;100.00;101955.94;5212331;28;20104;-83
2021/08/23 01:51:59;;;;;;;22.13;11.43;;;;;;;16.91;100.00;101956.88;5208583;28;20037;-83
2021/08/23 01:54:30;;;;;;;23.55;10.25;;;;;;;16.88;100.00;101959.97;5225647;28;20105;-83
2021/08/23 01:57:00;;;;;;;21.83;11.05;;;;;;;16.92;100.00;101962.13;5226753;28;20025;-83
2021/08/23 01:59:31;;;;;;;26.17;11.48;;;;;;;16.91;100.00;101962.28;5223431;28;21573;-83
2021/08/23 02:02:02;;;;;;;24.27;11.38;;;;;;;16.90;100.00;101961.47;5206113;28;20361;-82
2021/08/23 02:04:38;;;;;;;26.48;11.13;;;;;;;16.83;100.00;101964.06;5225400;28;20097;-84
2021/08/23 02:07:10;;;;;;;28.17;12.70;;;;;;;16.77;100.00;101961.22;5225145;28;20199;-84
2021/08/23 02:09:51;;;;;;;27.48;12.05;;;;;;;16.68;100.00;101959.56;5224462;28;20119;-84
2021/08/23 02:12:26;;;;;;;22.35;11.90;;;;;;;16.66;100.00;101967.00;5223506;28;20033;-83
2021/08/23 02:14:56;;;;;;;25.08;12.70;;;;;;;16.58;100.00;101970.63;5223504;28;20024;-84
2021/08/23 02:17:27;;;;;;;30.02;12.80;;;;;;;16.46;100.00;101970.16;5222809;28;20068;-82
2021/08/23 02:19:58;;;;;;;25.13;13.88;;;;;;;16.43;100.00;101969.69;5223573;28;20021;-84
2021/08/23 02:22:28;;;;;;;34.72;13.27;;;;;;;16.46;100.00;101969.31;5205208;28;20493;-83
2021/08/23 02:24:59;;;;;;;33.30;13.63;;;;;;;16.40;100.00;101965.47;5223492;28;20478;-84
2021/08/23 02:27:29;;;;;;;31.52;13.73;;;;;;;16.40;100.00;101968.16;5222846;28;20033;-84
2021/08/23 02:30:00;;;;;;;24.85;14.82;;;;;;;16.47;100.00;101974.59;5222738;28;20033;-83
2021/08/23 02:32:30;;;;;;;25.88;12.77;;;;;;;16.46;100.00;101972.03;5222915;28;20111;-84
2021/08/23 02:35:01;;;;;;;30.65;15.63;;;;;;;16.39;100.00;101984.59;5222958;28;20045;-84
2021/08/23 02:37:32;;;;;;;25.73;13.93;;;;;;;16.41;100.00;101979.84;5223665;28;20106;-84
2021/08/23 02:40:04;;;;;;;26.67;14.77;;;;;;;16.44;100.00;101985.75;5223984;28;20111;-84
2021/08/23 02:42:34;;;;;;;25.15;14.63;;;;;;;16.49;100.00;101988.78;5223423;28;20040;-84
2021/08/23 02:45:06;;;;;;;28.05;15.27;;;;;;;16.56;100.00;101986.19;5226710;28;20370;-83
2021/08/23 02:47:36;;;;;;;25.75;15.00;;;;;;;16.49;100.00;101977.94;5208661;28;21294;-83
2021/08/23 02:50:09;;;;;;;29.95;15.85;;;;;;;16.52;100.00;101980.31;5203472;28;20112;-84
2021/08/23 02:52:39;;;;;;;27.38;15.73;;;;;;;16.58;100.00;101984.16;5216367;28;20039;-83
2021/08/23 02:55:10;;;;;;;38.63;18.33;;;;;;;16.55;100.00;101981.81;5224437;28;20021;-83
2021/08/23 02:57:41;;;;;;;28.35;17.02;;;;;;;16.56;100.00;101975.34;5212678;28;20037;-83
2021/08/23 03:00:12;;;;;;;34.05;16.25;;;;;;;16.55;100.00;101985.34;5212747;28;20510;-83
2021/08/23 03:02:42;;;;;;;37.63;17.73;;;;;;;16.49;100.00;101993.34;5226168;28;20044;-82
2021/08/23 03:05:13;;;;;;;38.70;19.33;;;;;;;16.50;100.00;101990.47;5225875;28;20021;-83
2021/08/23 03:07:43;;;;;;;41.05;20.15;;;;;;;16.47;100.00;101985.41;5225254;28;20087;-82
2021/08/23 03:10:14;;;;;;;39.70;20.50;;;;;;;16.43;100.00;101984.09;5226015;28;20024;-83
2021/08/23 03:12:45;;;;;;;36.15;20.67;;;;;;;16.39;100.00;101982.75;5207918;28;20513;-84
2021/08/23 03:15:15;;;;;;;37.83;19.98;;;;;;;16.37;100.00;101983.97;5225871;28;20039;-83
2021/08/23 03:17:46;;;;;;;47.97;22.23;;;;;;;16.35;100.00;101988.69;5225097;28;20045;-82
2021/08/23 03:20:17;;;;;;;39.55;21.88;;;;;;;16.37;100.00;101986.66;5225448;28;20032;-83
2021/08/23 03:22:47;;;;;;;43.78;22.73;;;;;;;16.37;100.00;101992.91;5225170;28;20025;-83
2021/08/23 03:25:18;;;;;;;43.92;21.98;;;;;;;16.37;100.00;101987.50;5206687;28;20041;-84
2021/08/23 03:27:48;;;;;;;45.63;25.02;;;;;;;16.30;100.00;101992.75;5212459;28;20017;-83
2021/08/23 03:30:19;;;;;;;54.92;28.55;;;;;;;16.27;100.00;101992.28;5206768;28;20478;-83
2021/08/23 03:32:49;;;;;;;48.55;26.45;;;;;;;16.28;100.00;101985.84;5224571;28;20155;-83
2021/08/23 03:35:20;;;;;;;52.85;28.00;;;;;;;16.25;100.00;101997.84;5224498;28;20120;-83
2021/08/23 03:37:50;;;;;;;54.45;26.95;;;;;;;16.20;100.00;102005.66;5224367;28;20025;-83
2021/08/23 03:40:21;;;;;;;59.58;28.95;;;;;;;16.19;100.00;101998.56;5210982;28;20036;-83
2021/08/23 03:42:51;;;;;;;65.05;29.15;;;;;;;16.19;100.00;102008.56;5224107;28;20025;-83
2021/08/23 03:45:22;;;;;;;58.85;29.25;;;;;;;16.18;100.00;102012.28;5206440;28;20505;-83
2021/08/23 03:47:52;;;;;;;55.97;28.55;;;;;;;16.21;100.00;102010.06;5223988;28;20559;-83
2021/08/23 03:50:23;;;;;;;62.80;29.73;;;;;;;16.21;100.00;102018.19;5223098;28;20071;-83
2021/08/23 03:52:53;;;;;;;59.00;30.45;;;;;;;16.21;100.00;102020.03;5224284;28;20032;-83
2021/08/23 03:55:24;;;;;;;63.05;31.17;;;;;;;16.21;100.00;102023.59;5214679;28;20064;-84
2021/08/23 03:57:55;;;;;;;63.92;30.88;;;;;;;16.24;100.00;102019.72;5201576;28;20032;-82
2021/08/23 04:00:25;;;;;;;66.82;31.00;;;;;;;16.25;100.00;102022.22;5223687;28;20036;-83
2021/08/23 04:02:56;;;;;;;63.47;31.38;;;;;;;16.20;100.00;102031.91;5223423;28;20036;-83
2021/08/23 04:05:27;;;;;;;63.58;31.70;;;;;;;16.23;100.00;102026.16;5209856;28;20071;-83
2021/08/23 04:07:57;;;;;;;70.72;33.80;;;;;;;16.23;100.00;102028.84;5228734;28;20021;-83
2021/08/23 04:10:28;;;;;;;71.63;32.83;;;;;;;16.26;100.00;102034.75;5228564;28;20040;-83
2021/08/23 04:12:58;;;;;;;63.83;32.63;;;;;;;16.24;100.00;102033.25;5210530;28;20142;-82
2021/08/23 04:15:29;;;;;;;76.88;33.75;;;;;;;16.22;100.00;102043.41;5227966;28;20033;-83
2021/08/23 04:17:59;;;;;;;71.95;33.25;;;;;;;16.25;100.00;102045.75;5228608;28;20028;-82
2021/08/23 04:20:30;;;;;;;70.55;33.00;;;;;;;16.27;100.00;102051.88;5226682;28;20031;-83
2021/08/23 04:23:00;;;;;;;64.53;32.65;;;;;;;16.25;100.00;102048.47;5216610;28;20131;-83
2021/08/23 04:25:30;;;;;;;63.85;33.28;;;;;;;16.22;100.00;102048.84;5228470;28;20029;-83
2021/08/23 04:28:01;;;;;;;62.00;32.10;;;;;;;16.24;100.00;102055.75;5219196;28;20032;-83
2021/08/23 04:30:31;;;;;;;70.13;33.55;;;;;;;16.22;100.00;102063.22;5207139;28;20357;-83
2021/08/23 04:33:02;;;;;;;61.83;31.80;;;;;;;16.29;100.00;102071.47;5228102;28;20044;-83
2021/08/23 04:35:32;;;;;;;70.93;31.27;;;;;;;16.35;100.00;102067.22;5227864;28;20482;-84
2021/08/23 04:38:03;;;;;;;66.93;31.95;;;;;;;16.30;100.00;102071.28;5182173;28;20041;-83
2021/08/23 04:40:33;;;;;;;61.88;31.20;;;;;;;16.30;100.00;102071.28;5220893;28;20040;-83
2021/08/23 04:43:04;;;;;;;68.80;33.25;;;;;;;16.27;100.00;102077.06;5214833;28;20014;-83
2021/08/23 04:45:35;;;;;;;68.72;32.78;;;;;;;16.29;100.00;102080.44;5220414;28;20084;-83
2021/08/23 04:48:05;;;;;;;61.67;30.95;;;;;;;16.33;100.00;102089.06;5223020;28;20035;-83
2021/08/23 04:50:36;;;;;;;57.95;29.60;;;;;;;16.39;100.00;102091.06;5228276;28;20021;-83
2021/08/23 04:53:06;;;;;;;63.75;31.63;;;;;;;16.37;100.00;102092.28;5228662;28;20021;-83
2021/08/23 04:55:37;;;;;;;58.90;30.35;;;;;;;16.39;100.00;102087.53;5209570;28;20025;-83
2021/08/23 04:58:07;;;;;;;59.80;29.77;;;;;;;16.44;100.00;102101.38;5226157;28;20021;-83
2021/08/23 05:00:38;;;;;;;71.95;30.77;;;;;;;16.38;100.00;102100.22;5226018;28;20042;-83
2021/08/23 05:03:09;;;;;;;57.63;29.95;;;;;;;16.42;100.00;102109.69;5211847;28;20052;-83
2021/08/23 05:05:41;;;;;;;59.35;28.08;;;;;;;16.41;100.00;102113.41;5225403;28;20122;-82
2021/08/23 05:08:11;;;;;;;55.97;28.85;;;;;;;16.40;100.00;102113.56;5225491;28;20382;-83
2021/08/23 05:10:43;;;;;;;57.78;28.75;;;;;;;16.41;100.00;102121.53;5236417;28;20032;-83
2021/08/23 05:13:13;;;;;;;61.75;30.08;;;;;;;16.41;100.00;102123.38;5225081;28;20021;-83
2021/08/23 05:15:44;;;;;;;60.80;29.80;;;;;;;16.39;100.00;102126.28;5224810;28;20367;-83
2021/08/23 05:18:15;;;;;;;58.13;29.58;;;;;;;16.42;100.00;102134.06;5215591;28;20036;-83
2021/08/23 05:20:45;;;;;;;52.00;28.83;;;;;;;16.53;100.00;102132.84;5220028;28;20029;-83
2021/08/23 05:23:16;;;;;;;57.42;29.40;;;;;;;16.61;100.00;102127.38;5224124;28;20024;-83
2021/08/23 05:25:46;;;;;;;50.80;26.60;;;;;;;16.70;100.00;102134.47;5226023;28;20404;-80
2021/08/23 05:28:17;;;;;;;52.05;27.88;;;;;;;16.68;100.00;102135.69;5227045;28;20056;-81
2021/08/23 05:30:47;;;;;;;51.15;27.65;;;;;;;16.71;100.00;102138.03;5227467;28;20028;-79
2021/08/23 05:33:18;;;;;;;52.55;27.25;;;;;;;16.79;100.00;102138.88;5226951;28;20044;-81
2021/08/23 05:35:48;;;;;;;50.60;27.55;;;;;;;16.84;100.00;102149.19;5220034;28;20030;-81
2021/08/23 05:38:19;;;;;;;50.85;27.25;;;;;;;16.98;100.00;102145.75;5220039;28;20052;-80
2021/08/23 05:40:49;;;;;;;50.15;27.00;;;;;;;17.31;100.00;102142.81;5227455;28;20021;-81
2021/08/23 05:43:20;;;;;;;42.83;23.95;;;;;;;17.66;100.00;102145.97;5226912;28;20036;-81
2021/08/23 05:45:50;;;;;;;41.67;23.17;;;;;;;17.84;100.00;102155.53;5226698;28;20501;-81
2021/08/23 05:48:21;;;;;;;42.75;23.92;;;;;;;17.70;100.00;102147.31;5221635;28;20475;-82
2021/08/23 05:50:51;;;;;;;39.22;23.08;;;;;;;17.80;100.00;102156.06;5214985;28;20017;-82
2021/08/23 05:53:21;;;;;;;40.15;23.33;;;;;;;18.01;100.00;102158.94;5211504;28;20037;-83
2021/08/23 05:55:52;;;;;;;39.20;23.08;;;;;;;17.88;100.00;102158.75;5224601;28;20025;-83
2021/08/23 05:58:22;;;;;;;38.85;22.38;;;;;;;17.75;100.00;102156.63;5224329;28;20017;-83
2021/08/23 06:00:54;;;;;;;40.38;21.92;;;;;;;17.63;100.00;102168.06;5224391;28;20087;-82
2021/08/23 06:03:24;;;;;;;38.15;22.55;;;;;;;17.45;100.00;102173.78;5172246;28;20049;-82
2021/08/23 06:05:55;;;;;;;41.72;23.98;;;;;;;17.27;100.00;102171.31;5221193;28;20025;-82
2021/08/23 06:08:25;;;;;;;40.00;23.20;;;;;;;17.21;100.00;102177.47;5226982;28;20070;-82
2021/08/23 06:10:56;;;;;;;46.97;25.70;;;;;;;17.23;100.00;102180.88;5226410;28;20047;-83
2021/08/23 06:13:26;;;;;;;40.97;23.90;;;;;;;17.15;100.00;102189.88;5227992;28;20096;-81
2021/08/23 06:15:58;;;;;;;45.47;24.83;;;;;;;17.13;100.00;102185.66;5231009;28;20024;-82
2021/08/23 06:18:28;;;;;;;42.65;24.17;;;;;;;17.05;100.00;102191.94;5229569;28;20021;-82
2021/08/23 06:21:00;;;;;;;49.67;25.90;;;;;;;16.98;100.00;102197.25;5232584;28;20077;-80
2021/08/23 06:23:31;;;;;;;48.38;25.80;;;;;;;17.00;100.00;102197.91;5237340;28;20045;-81
2021/08/23 06:26:01;;;;;;;50.55;26.63;;;;;;;17.04;100.00;102201.13;5236595;28;20036;-81
2021/08/23 06:28:31;;;;;;;44.95;25.55;;;;;;;17.02;100.00;102197.75;5233495;28;20032;-82
2021/08/23 06:31:02;;;;;;;42.92;23.92;;;;;;;17.15;100.00;102203.44;5232797;28;20028;-82
2021/08/23 06:33:34;;;;;;;45.90;24.92;;;;;;;17.21;100.00;102205.44;5231378;28;20025;-82
2021/08/23 06:36:05;;;;;;;42.33;23.70;;;;;;;17.19;100.00;102212.91;5222028;28;20021;-81
2021/08/23 06:38:35;;;;;;;46.78;25.33;;;;;;;17.20;100.00;102213.75;5222241;28;20036;-81
2021/08/23 06:41:06;;;;;;;42.42;23.90;;;;;;;17.13;100.00;102210.91;5219867;28;20451;-81
2021/08/23 06:43:36;;;;;;;45.15;24.00;;;;;;;17.16;100.00;102221.38;5212030;28;20025;-81
2021/08/23 06:46:07;;;;;;;50.72;23.38;;;;;;;17.16;100.00;102215.97;5224784;28;20037;-80
2021/08/23 06:48:37;;;;;;;44.67;23.40;;;;;;;17.13;100.00;102218.19;5211384;28;20036;-81
2021/08/23 06:51:08;;;;;;;50.03;24.90;;;;;;;17.06;100.00;102224.31;5224974;28;20108;-82
2021/08/23 06:53:38;;;;;;;50.65;23.27;;;;;;;17.04;100.00;102222.81;5220127;28;20413;-81
2021/08/23 06:56:09;;;;;;;42.88;20.60;;;;;;;17.03;100.00;102221.97;5224462;28;20025;-81
2021/08/23 06:58:39;;;;;;;44.85;22.45;;;;;;;17.02;100.00;102214.84;5230302;28;20028;-81
2021/08/23 07:01:10;;;;;;;35.25;19.17;;;;;;;17.01;100.00;102226.69;5212387;28;20034;-81
2021/08/23 07:03:40;;;;;;;34.17;19.02;;;;;;;17.05;100.00;102232.63;5225602;28;20106;-82
2021/08/23 07:06:11;;;;;;;38.40;19.45;;;;;;;17.06;100.00;102232.44;5225164;28;20044;-81
2021/08/23 07:08:41;;;;;;;38.80;19.58;;;;;;;17.13;100.00;102243.44;5207203;28;20129;-81
2021/08/23 07:11:12;;;;;;;40.35;19.45;;;;;;;17.04;100.00;102248.03;5224692;28;20457;-82
2021/08/23 07:13:43;;;;;;;35.25;19.77;;;;;;;16.96;100.00;102250.78;5224930;28;20029;-81
2021/08/23 07:16:13;;;;;;;44.88;22.42;;;;;;;16.95;100.00;102248.25;5224773;28;20021;-83
2021/08/23 07:18:43;;;;;;;51.55;25.45;;;;;;;16.91;100.00;102253.16;5194129;28;20428;-82
2021/08/23 07:21:14;;;;;;;55.58;27.02;;;;;;;16.89;100.00;102251.66;5204404;28;20052;-82
2021/08/23 07:23:44;;;;;;;54.80;27.02;;;;;;;16.88;100.00;102258.09;5216387;28;20123;-81
2021/08/23 07:26:15;;;;;;;57.05;27.35;;;;;;;16.83;100.00;102259.47;5224246;28;20025;-82
2021/08/23 07:28:46;;;;;;;50.97;25.90;;;;;;;16.76;100.00;102258.44;5224317;28;20112;-82
2021/08/23 07:31:16;;;;;;;60.95;27.75;;;;;;;16.78;100.00;102252.88;5218307;28;20060;-82
2021/08/23 07:33:48;;;;;;;54.35;27.00;;;;;;;16.76;100.00;102261.16;5229509;28;20040;-85
2021/08/23 07:36:18;;;;;;;61.28;29.42;;;;;;;16.73;100.00;102261.53;5229257;28;20021;-82
2021/08/23 07:38:48;;;;;;;57.10;29.05;;;;;;;16.71;100.00;102259.94;5229372;28;20532;-83
2021/08/23 07:41:19;;;;;;;57.03;31.30;;;;;;;16.72;100.00;102267.13;5227627;28;20047;-82
2021/08/23 07:43:50;;;;;;;59.95;30.70;;;;;;;16.76;100.00;102274.72;5228156;28;20117;-83
2021/08/23 07:46:20;;;;;;;54.58;28.98;;;;;;;16.77;100.00;102272.88;5231237;28;20089;-82
2021/08/23 07:48:50;;;;;;;49.83;27.90;;;;;;;16.83;100.00;102272.19;5230291;28;20043;-82
2021/08/23 07:51:21;;;;;;;52.75;28.42;;;;;;;16.81;100.00;102276.91;5228255;28;20028;-81
2021/08/23 07:53:51;;;;;;;49.38;27.25;;;;;;;16.79;100.00;102279.78;5218986;28;20027;-82
2021/08/23 07:56:22;;;;;;;47.90;26.77;;;;;;;16.76;100.00;102280.13;5217179;28;20051;-83
2021/08/23 07:58:52;;;;;;;46.50;26.25;;;;;;;16.76;100.00;102285.53;5227758;28;20021;-82
2021/08/23 08:01:25;;;;;;;46.78;25.35;;;;;;;16.86;100.00;102285.38;5228979;28;20136;-83
2021/08/23 08:03:56;;;;;;;47.53;24.80;;;;;;;16.99;100.00;102292.97;5228151;28;20017;-82
2021/08/23 08:06:26;;;;;;;41.75;23.45;;;;;;;17.07;100.00;102284.81;5230033;28;20036;-82
2021/08/23 08:08:56;;;;;;;43.13;23.55;;;;;;;17.32;100.00;102294.56;5215619;28;20036;-81
2021/08/23 08:11:27;;;;;;;39.22;23.45;;;;;;;17.47;100.00;102291.09;5227053;28;20059;-82
2021/08/23 08:13:57;;;;;;;37.95;21.67;;;;;;;17.57;100.00;102295.31;5224825;28;20538;-82
2021/08/23 08:16:28;;;;;;;37.67;21.10;;;;;;;17.66;100.00;102296.06;5216119;28;20021;-81
2021/08/23 08:18:59;;;;;;;34.90;21.08;;;;;;;17.76;100.00;102304.03;5201939;28;20398;-81
2021/08/23 08:21:29;;;;;;;35.75;20.17;;;;;;;17.91;100.00;102304.13;5224421;28;20111;-81
2021/08/23 08:24:00;;;;;;;35.10;19.33;;;;;;;17.98;100.00;102300.53;5223643;28;20032;-83
2021/08/23 08:26:30;;;;;;;33.22;19.90;;;;;;;18.02;100.00;102310.00;5224227;28;20040;-82
2021/08/23 08:29:01;;;;;;;38.75;21.60;;;;;;;18.18;100.00;102319.91;5223937;28;20021;-82
2021/08/23 08:31:31;;;;;;;35.33;20.80;;;;;;;18.18;100.00;102310.91;5223665;28;20033;-83
2021/08/23 08:34:01;;;;;;;32.47;19.08;;;;;;;18.10;100.00;102319.94;5224148;28;20021;-83
2021/08/23 08:36:32;;;;;;;34.35;20.40;;;;;;;18.08;100.00;102322.84;5223038;28;20029;-83
2021/08/23 08:39:03;;;;;;;33.30;20.08;;;;;;;18.05;100.00;102323.19;5216620;28;20364;-82
2021/08/23 08:41:33;;;;;;;35.88;19.75;;;;;;;18.06;100.00;102330.31;5218009;28;20028;-82
2021/08/23 08:44:04;;;;;;;30.17;18.60;;;;;;;18.13;100.00;102327.75;5223735;28;20370;-81
2021/08/23 08:46:35;;;;;;;31.88;18.48;;;;;;;18.13;100.00;102337.75;5224013;28;20041;-81
2021/08/23 08:49:10;;;;;;;30.30;17.75;;;;;;;18.11;100.00;102330.63;5223591;28;20028;-82
2021/08/23 08:51:43;;;;;;;32.63;18.55;;;;;;;18.02;100.00;102342.59;5219980;28;20029;-82
2021/08/23 08:54:13;;;;;;;29.30;16.38;;;;;;;17.92;100.00;102347.38;5216041;28;20032;-82
2021/08/23 08:56:44;;;;;;;27.35;16.00;;;;;;;17.80;100.00;102349.66;5224068;28;20025;-80
2021/08/23 08:59:14;;;;;;;29.33;16.40;;;;;;;17.66;100.00;102353.06;5210889;28;20021;-82
2021/08/23 09:01:48;;;;;;;30.35;17.75;;;;;;;17.55;100.00;102359.72;5224382;28;20371;-82
2021/08/23 09:04:28;;;;;;;32.22;17.60;;;;;;;17.53;100.00;102360.94;5221057;28;20013;-82
2021/08/23 09:06:59;;;;;;;36.08;18.02;;;;;;;17.47;100.00;102367.03;5223977;28;20035;-81
2021/08/23 09:09:30;;;;;;;30.63;18.13;;;;;;;17.55;100.00;102362.44;5223676;28;20417;-82
2021/08/23 09:12:04;;;;;;;29.95;18.63;;;;;;;17.63;100.00;102356.16;5223729;28;20020;-82
2021/08/23 09:14:40;;;;;;;30.75;18.92;;;;;;;17.72;100.00;102368.66;5217168;28;20030;-82
2021/08/23 09:17:11;;;;;;;33.15;18.02;;;;;;;17.80;100.00;102362.38;5199777;28;20031;-81
2021/08/23 09:19:41;;;;;;;27.77;16.73;;;;;;;17.84;100.00;102363.72;5215540;28;20403;-80
2021/08/23 09:22:20;;;;;;;29.35;16.20;;;;;;;17.80;100.00;102365.94;5199015;28;20033;-82
2021/08/23 09:24:50;;;;;;;29.65;20.02;;;;;;;17.93;100.00;102367.25;5213912;28;20271;-82
2021/08/23 09:27:21;;;;;;;31.55;17.92;;;;;;;18.04;100.00;102366.84;5219484;28;20029;-82
2021/08/23 09:29:55;;;;;;;30.90;18.20;;;;;;;18.19;100.00;102367.75;5214638;28;20078;-83
2021/08/23 09:32:36;;;;;;;28.75;17.23;;;;;;;18.19;100.00;102370.47;5216867;28;20490;-82
2021/08/23 09:35:06;;;;;;;30.98;18.00;;;;;;;18.40;100.00;102369.81;5217361;28;20033;-82
2021/08/23 09:37:37;;;;;;;25.80;16.35;;;;;;;18.62;100.00;102363.53;5223336;28;20394;-82
2021/08/23 09:40:10;;;;;;;23.05;15.45;;;;;;;18.84;100.00;102372.72;5201645;28;20390;-82
2021/08/23 09:42:41;;;;;;;26.38;15.00;;;;;;;19.19;100.00;102369.50;5221742;28;20056;-81
2021/08/23 09:45:20;;;;;;;22.50;14.45;;;;;;;19.64;100.00;102373.94;5205103;28;20124;-81
2021/08/23 09:47:59;;;;;;;22.10;13.32;;;;;;;19.95;100.00;102368.25;5224423;28;20067;-82
2021/08/23 09:50:39;;;;;;;19.80;13.02;;;;;;;19.89;100.00;102372.59;5214928;28;20039;-84
2021/08/23 09:53:12;;;;;;;17.25;11.68;;;;;;;19.88;100.00;102378.19;5227755;28;20029;-84
2021/08/23 09:55:46;;;;;;;18.38;11.23;;;;;;;19.60;100.00;102384.34;5228179;28;20368;-82
2021/08/23 09:58:17;;;;;;;24.10;13.18;;;;;;;19.59;100.00;102381.78;5226672;28;20381;-83
2021/08/23 10:00:48;;;;;;;18.25;10.48;;;;;;;19.54;100.00;102381.50;5213126;28;20028;-82
2021/08/23 10:03:22;;;;;;;20.77;11.13;;;;;;;19.55;100.00;102383.19;5226404;28;20021;-82
2021/08/23 10:05:54;;;;;;;15.05;9.70;;;;;;;19.54;100.00;102381.50;5224556;28;20112;-81
2021/08/23 10:08:25;;;;;;;19.27;9.40;;;;;;;19.41;100.00;102383.00;5214297;28;20033;-82
2021/08/23 10:10:56;;;;;;;19.98;8.95;;;;;;;19.32;100.00;102378.69;5225901;28;20375;-85
2021/08/23 10:13:26;;;;;;;13.77;9.07;;;;;;;19.21;100.00;102381.88;5225912;28;20024;-82
2021/08/23 10:15:57;;;;;;;15.30;8.60;;;;;;;19.18;100.00;102392.25;5225828;28;20456;-83
2021/08/23 10:18:28;;;;;;;15.25;8.95;;;;;;;19.10;100.00;102388.63;5226461;28;20118;-84
2021/08/23 10:20:58;;;;;;;16.73;8.48;;;;;;;19.11;100.00;102393.00;5225810;28;20036;-82
2021/08/23 10:23:29;;;;;;;15.77;8.57;;;;;;;19.08;100.00;102390.69;5226567;28;20013;-85
2021/08/23 10:25:59;;;;;;;12.43;8.90;;;;;;;18.99;100.00;102394.50;5212190;28;20104;-85
2021/08/23 10:28:38;;;;;;;11.18;7.97;;;;;;;19.00;100.00;102385.31;5225429;28;20025;-86
2021/08/23 10:31:10;;;;;;;15.35;8.30;;;;;;;19.09;100.00;102391.53;5215627;28;20470;-82
2021/08/23 10:33:42;;;;;;;17.45;8.13;;;;;;;19.30;100.00;102394.34;5227409;28;20079;-82
2021/08/23 10:36:16;;;;;;;20.17;9.27;;;;;;;19.32;100.00;102397.72;5226389;28;20029;-82
2021/08/23 10:38:47;;;;;;;13.48;8.00;;;;;;;19.22;100.00;102394.44;5226402;28;20048;-79
2021/08/23 10:41:27;;;;;;;14.48;8.45;;;;;;;19.29;100.00;102400.84;5225753;28;20556;-81
2021/08/23 10:44:01;;;;;;;17.55;8.00;;;;;;;19.32;100.00;102392.28;5225925;28;20027;-82
2021/08/23 10:46:35;;;;;;;17.23;8.57;;;;;;;19.32;100.00;102391.44;5212106;28;20367;-82
2021/08/23 10:49:12;;;;;;;13.85;8.30;;;;;;;19.23;100.00;102392.56;5227244;28;20025;-83
2021/08/23 10:51:54;;;;;;;15.48;8.00;;;;;;;19.20;100.00;102391.06;5227986;28;20040;-82
2021/08/23 10:54:28;;;;;;;15.23;8.02;;;;;;;19.31;100.00;102398.75;5229670;28;20053;-81
2021/08/23 10:56:59;;;;;;;16.25;7.55;;;;;;;19.57;100.00;102392.84;5229131;28;20502;-81
2021/08/23 10:59:41;;;;;;;17.20;8.77;;;;;;;19.82;100.00;102398.88;5229346;28;20055;-80
2021/08/23 11:02:20;;;;;;;13.85;7.20;;;;;;;20.02;100.00;102399.13;5212370;28;20112;-82
2021/08/23 11:04:57;;;;;;;16.58;7.80;;;;;;;20.15;100.00;102393.84;5230767;28;20025;-82
2021/08/23 11:07:30;;;;;;;12.88;7.22;;;;;;;20.22;100.00;102390.34;5230762;28;20036;-81
2021/08/23 11:10:07;;;;;;;15.07;7.35;;;;;;;20.23;100.00;102394.75;5229434;28;20024;-83
2021/08/23 11:12:41;;;;;;;14.10;7.45;;;;;;;20.22;100.00;102395.78;5230070;28;20088;-82
2021/08/23 11:15:28;;;;;;;11.85;6.95;;;;;;;20.14;100.00;102396.75;5230754;28;20036;-81
2021/08/23 11:18:07;;;;;;;14.98;7.05;;;;;;;20.12;100.00;102404.25;5229990;28;20402;-81
2021/08/23 11:20:41;;;;;;;17.08;6.68;;;;;;;20.18;100.00;102400.75;5230007;28;20482;-82
2021/08/23 11:23:15;;;;;;;20.53;8.03;;;;;;;20.24;100.00;102404.63;5230767;28;20081;-81